トロント/ピアソン の空港の天気 - METARとTAF

トロント・ピアソン国際空港 ( CYYZ / YYZ ) - カナダ オンタリオ州トロント
飛行場実況気象(Metar)
観測時間08/04 21:00 EDT (08/05 01:00 UTC)
風向・風速北西 6m/s
視程10km以上
天気現象
少しの雲 雲底高度 460m
全天の4割程度の雲 雲底高度 1160m
全天の8割程度の雲 雲底高度 2440m
気温20℃
湿度88%
気圧1010.4hPa
METARCYYZ 050100Z 32011KT 15SM FEW015 SCT038 BKN080 20/18 A2984 RMK CF1SC4AC1 CF TR SLP104 DENSITY ALT 1400FT
過去の天気等 Google飛行場航空写真 Wunderground天気予報

過去48時間のMETAR

飛行場予報(TAF)
発表時間: 8/04 20:06 EDT (8/05 00:06 UTC)
予報対象時間: 4日20時 EDT ~ 6日2時 EDT
風向・風速北北西 5m/s
視程10km以上
全天の4割程度の雲 雲底高度 460m
全天の8割程度の雲 雲底高度 910m
4日20時 EDT ~ 4日23時 EDT に一時的に
全天の8割程度の雲 雲底高度 460m
4日23時 EDT から
風向・風速西北西 4m/s
視程10km以上
少しの雲 雲底高度 610m
全天の4割程度の雲 雲底高度 2440m
5日8時 EDT から
風向・風速西 6m/s
視程10km以上
なし
5日11時 EDT から
風向・風速西 8m/s
視程10km以上
全天の4割程度の雲 雲底高度 1220m
5日20時 EDT から
風向・風速西 5m/s
視程10km以上
なし
TAF AMD CYYZ 050006Z 0500/0606 33010KT P6SM SCT015 BKN030
TEMPO 0500/0503 BKN015
FM050300 30008KT P6SM FEW020 SCT080
FM051200 28012KT P6SM SKC
FM051500 28015KT P6SM SCT040
FM060000 27010KT P6SM SKC RMK NXT FCST BY 050300Z